Time;durP1;ratioP1;P1;durP2;ratioP2;P2;SDS_P1;SDS_P2;PMS_P1;PMS_P2;Temp;Humidity;BMP_temperature;BMP_pressure;BME280_temperature;BME280_humidity;BME280_pressure;Samples;Min_cycle;Max_cycle;Signal;HPM_P1;HPM_P2
2023/08/05 00:01:09;;;;;;;4.10;2.93;;;22.00;72.80;23.10;100812.00;;;;6276212;22;20172;-52
2023/08/05 00:03:34;;;;;;;3.30;3.00;;;22.00;72.70;23.10;100818.00;;;;6271473;22;20206;-52
2023/08/05 00:06:00;;;;;;;3.00;2.70;;;22.00;72.70;23.10;100810.00;;;;6270113;22;20145;-52
2023/08/05 00:08:26;;;;;;;3.80;2.90;;;22.00;72.70;23.10;100809.00;;;;6270913;22;20148;-52
2023/08/05 00:10:52;;;;;;;3.27;2.97;;;22.00;72.70;23.10;100805.00;;;;6270826;22;20161;-52
2023/08/05 00:13:17;;;;;;;2.90;2.70;;;22.00;72.60;23.10;100812.00;;;;6272421;22;20156;-53
2023/08/05 00:15:43;;;;;;;4.30;2.90;;;22.00;72.60;23.10;100806.00;;;;6275130;22;20141;-52
2023/08/05 00:18:10;;;;;;;3.10;2.80;;;22.00;72.60;23.10;100805.00;;;;6272651;22;20187;-52
2023/08/05 00:20:35;;;;;;;2.90;2.70;;;22.00;72.70;23.10;100811.00;;;;6270615;22;20172;-52
2023/08/05 00:23:01;;;;;;;3.17;2.90;;;21.90;72.60;23.00;100803.00;;;;6270488;22;20204;-52
2023/08/05 00:25:27;;;;;;;4.23;2.90;;;22.00;72.60;23.00;100807.00;;;;6270338;22;20145;-51
2023/08/05 00:27:53;;;;;;;3.43;2.90;;;22.00;72.60;23.00;100819.00;;;;6269937;22;20165;-52
2023/08/05 00:30:18;;;;;;;3.23;2.93;;;22.00;72.50;23.00;100820.00;;;;6270166;22;20165;-52
2023/08/05 00:32:44;;;;;;;3.63;2.50;;;22.00;72.50;23.00;100809.00;;;;6270349;22;20161;-52
2023/08/05 00:35:10;;;;;;;3.10;2.80;;;21.90;72.50;23.00;100806.00;;;;6270164;22;20145;-52
2023/08/05 00:37:36;;;;;;;3.87;3.00;;;21.90;72.40;23.00;100809.00;;;;6270155;22;20156;-52
2023/08/05 00:40:02;;;;;;;2.77;2.57;;;21.90;72.30;23.00;100799.00;;;;6270265;22;20165;-52
2023/08/05 00:42:28;;;;;;;2.97;2.70;;;21.90;72.40;23.00;100790.00;;;;6270791;22;20218;-52
2023/08/05 00:44:54;;;;;;;3.67;3.10;;;21.90;72.30;23.00;100789.00;;;;6270038;22;20225;-52
2023/08/05 00:47:20;;;;;;;3.03;2.67;;;21.90;72.20;22.90;100780.00;;;;6270367;22;20252;-53
2023/08/05 00:49:46;;;;;;;2.93;2.67;;;21.90;72.20;22.90;100780.00;;;;6269124;22;20233;-53
2023/08/05 00:52:12;;;;;;;2.90;2.70;;;21.90;72.20;22.90;100786.00;;;;6270816;22;20145;-52
2023/08/05 00:54:37;;;;;;;2.77;2.57;;;21.90;72.20;22.90;100778.00;;;;6269009;22;20198;-53
2023/08/05 00:57:03;;;;;;;3.50;2.90;;;21.80;72.20;22.80;100780.00;;;;6268560;22;20153;-53
2023/08/05 00:59:29;;;;;;;3.37;3.07;;;21.80;72.10;22.80;100775.00;;;;6270304;22;20156;-53
2023/08/05 01:01:55;;;;;;;3.70;2.97;;;21.80;72.10;22.70;100789.00;;;;6270214;22;20169;-53
2023/08/05 01:04:21;;;;;;;3.20;2.90;;;21.80;72.10;22.80;100772.00;;;;6268729;22;20610;-53
2023/08/05 01:06:46;;;;;;;3.87;3.10;;;21.80;71.70;22.80;100768.00;;;;6268667;22;20169;-52
2023/08/05 01:09:12;;;;;;;3.47;2.90;;;21.80;71.80;22.80;100774.00;;;;6243252;22;20598;-52
2023/08/05 01:11:38;;;;;;;2.87;2.60;;;21.90;71.70;22.80;100778.00;;;;6268558;22;20165;-52
2023/08/05 01:14:03;;;;;;;4.43;3.00;;;21.80;71.60;22.80;100778.00;;;;6268392;22;20230;-52
2023/08/05 01:16:29;;;;;;;3.27;2.97;;;21.80;71.80;22.80;100779.00;;;;6269760;22;20167;-52
2023/08/05 01:18:55;;;;;;;3.10;2.80;;;21.80;72.10;22.70;100781.00;;;;6271137;22;20137;-52
2023/08/05 01:21:39;;;;;;;3.60;3.30;;;21.80;71.90;22.70;100785.00;;;;6270492;22;20164;-52
2023/08/05 01:24:14;;;;;;;3.23;2.70;;;21.80;71.50;22.70;100788.00;;;;6272113;22;20666;-52
2023/08/05 01:26:40;;;;;;;3.47;2.73;;;21.80;71.90;22.70;100788.00;;;;6244903;22;20183;-51
2023/08/05 01:29:06;;;;;;;2.80;2.60;;;21.80;71.90;22.70;100793.00;;;;6272033;22;20621;-51
2023/08/05 01:31:32;;;;;;;3.00;2.70;;;21.80;71.70;22.70;100775.00;;;;6244919;22;20249;-51
2023/08/05 01:33:58;;;;;;;3.43;2.90;;;21.70;71.60;22.70;100785.00;;;;6245369;22;20238;-52
2023/08/05 01:36:23;;;;;;;3.87;2.90;;;21.70;71.60;22.60;100778.00;;;;6271848;22;20146;-51
2023/08/05 01:38:49;;;;;;;4.43;3.10;;;21.70;71.40;22.60;100776.00;;;;6271838;22;20149;-53
2023/08/05 01:41:15;;;;;;;3.20;2.90;;;21.70;71.50;22.60;100772.00;;;;6271493;22;20193;-51
2023/08/05 01:43:41;;;;;;;3.30;2.70;;;21.70;71.60;22.60;100778.00;;;;6245262;22;20152;-54
2023/08/05 01:46:07;;;;;;;3.57;3.17;;;21.70;71.30;22.30;100783.00;;;;6271596;22;20157;-53
2023/08/05 01:48:33;;;;;;;3.33;3.03;;;21.60;71.10;22.50;100791.00;;;;6272020;22;20145;-53
2023/08/05 01:50:58;;;;;;;4.07;3.20;;;21.60;71.10;22.50;100797.00;;;;6271772;22;20356;-53
2023/08/05 01:53:24;;;;;;;4.20;3.00;;;21.60;71.10;22.50;100785.00;;;;6271970;22;20152;-53
2023/08/05 01:55:50;;;;;;;3.10;2.80;;;21.60;71.10;22.50;100784.00;;;;6271873;22;20525;-53
2023/08/05 01:58:16;;;;;;;3.03;2.80;;;21.60;71.10;22.40;100778.00;;;;6276722;22;20152;-52
2023/08/05 02:00:49;;;;;;;3.33;2.93;;;21.60;71.10;22.50;100784.00;;;;6274912;22;20191;-52
2023/08/05 02:03:15;;;;;;;3.17;2.80;;;21.70;71.20;22.50;100793.00;;;;6270293;22;20692;-52
2023/08/05 02:05:40;;;;;;;3.40;2.83;;;21.60;71.10;22.40;100782.00;;;;6269744;22;20152;-54
2023/08/05 02:08:06;;;;;;;3.00;2.70;;;21.60;71.10;22.40;100784.00;;;;6270958;22;20175;-51
2023/08/05 02:10:32;;;;;;;3.47;3.10;;;21.50;70.90;22.40;100791.00;;;;6271264;22;20171;-52
2023/08/05 02:12:58;;;;;;;4.37;3.20;;;21.50;71.00;22.40;100784.00;;;;6278314;22;20141;-51
2023/08/05 02:15:23;;;;;;;3.10;2.80;;;21.50;70.20;22.40;100785.00;;;;6271982;22;20177;-51
2023/08/05 02:17:49;;;;;;;3.03;2.70;;;21.40;70.80;22.40;100785.00;;;;6271313;22;20163;-51
2023/08/05 02:20:15;;;;;;;4.17;2.90;;;21.40;71.00;22.40;100711.00;;;;6271278;22;20278;-51
2023/08/05 02:22:41;;;;;;;2.90;2.60;;;21.40;71.30;22.30;100768.00;;;;6271334;22;20153;-51
2023/08/05 02:25:07;;;;;;;3.53;2.93;;;21.40;71.20;22.30;100765.00;;;;6271313;22;20182;-50
2023/08/05 02:27:33;;;;;;;2.87;2.67;;;21.40;71.10;22.20;100763.00;;;;6271219;22;20195;-53
2023/08/05 02:29:59;;;;;;;3.10;2.90;;;21.40;71.10;22.20;100769.00;;;;6271362;22;20601;-53
2023/08/05 02:32:24;;;;;;;3.10;2.80;;;21.40;71.10;22.30;100766.00;;;;6271641;22;20183;-52
2023/08/05 02:34:50;;;;;;;3.10;2.90;;;21.50;70.90;22.20;100765.00;;;;6271800;22;20141;-52
2023/08/05 02:37:16;;;;;;;3.10;2.67;;;21.50;70.90;22.20;100763.00;;;;6271483;22;20159;-53
2023/08/05 02:39:41;;;;;;;2.80;2.60;;;21.50;71.00;22.20;100760.00;;;;6271802;22;20466;-53
2023/08/05 02:42:07;;;;;;;2.83;2.60;;;21.40;70.80;22.20;100754.00;;;;6271465;22;20431;-53
2023/08/05 02:44:33;;;;;;;2.53;2.33;;;21.40;71.00;22.20;100754.00;;;;6271676;22;20152;-53
2023/08/05 02:46:59;;;;;;;2.73;2.47;;;21.40;71.10;22.10;100749.00;;;;6271101;22;20169;-53
2023/08/05 02:49:24;;;;;;;4.23;2.87;;;21.40;71.10;22.10;100755.00;;;;6271349;22;20581;-52
2023/08/05 02:51:50;;;;;;;2.80;2.60;;;21.40;70.90;22.10;100767.00;;;;6265104;22;20218;-53
2023/08/05 02:54:16;;;;;;;3.10;2.63;;;21.40;70.90;22.10;100765.00;;;;6269387;22;20251;-53
2023/08/05 02:56:42;;;;;;;2.70;2.50;;;21.30;70.80;22.10;100758.00;;;;6269466;22;20163;-52
2023/08/05 02:59:08;;;;;;;3.33;2.83;;;21.30;70.70;22.10;100761.00;;;;6268869;22;20235;-53
2023/08/05 03:01:35;;;;;;;3.27;2.87;;;21.40;70.80;22.10;100750.00;;;;6271436;22;20168;-53
2023/08/05 03:04:02;;;;;;;3.20;2.60;;;21.40;70.80;22.10;100764.00;;;;6245468;22;20164;-53
2023/08/05 03:06:28;;;;;;;3.63;2.90;;;21.40;70.80;22.10;100751.00;;;;6270437;22;20165;-53
2023/08/05 03:08:54;;;;;;;2.93;2.60;;;21.40;70.80;22.10;100756.00;;;;6272019;22;20203;-52
2023/08/05 03:11:21;;;;;;;3.67;2.70;;;21.40;69.90;22.10;100764.00;;;;6272050;22;20161;-53
2023/08/05 03:13:47;;;;;;;2.70;2.50;;;21.40;70.30;22.10;100759.00;;;;6270493;22;20157;-52
2023/08/05 03:16:13;;;;;;;2.77;2.50;;;21.30;70.60;22.00;100767.00;;;;6270563;22;20149;-52
2023/08/05 03:18:39;;;;;;;2.67;2.47;;;21.30;70.60;22.10;100767.00;;;;6272220;22;20577;-52
2023/08/05 03:21:04;;;;;;;4.30;2.70;;;21.30;70.60;22.00;100753.00;;;;6271005;22;20236;-53
2023/08/05 03:23:30;;;;;;;3.63;2.63;;;21.30;70.60;22.00;100751.00;;;;6272038;22;20152;-53
2023/08/05 03:25:56;;;;;;;2.73;2.53;;;21.30;70.70;22.00;100749.00;;;;6270626;22;20208;-52
2023/08/05 03:28:21;;;;;;;2.90;2.70;;;21.30;70.70;22.00;100762.00;;;;6271155;22;20522;-53
2023/08/05 03:30:47;;;;;;;6.77;3.10;;;21.30;70.40;22.00;100752.00;;;;6269380;22;20165;-52
2023/08/05 03:33:13;;;;;;;3.93;2.90;;;21.20;70.70;22.00;100742.00;;;;6270681;22;20149;-51
2023/08/05 03:35:43;;;;;;;3.17;2.70;;;21.20;70.20;22.00;100742.00;;;;6269526;22;20218;-53
2023/08/05 03:38:08;;;;;;;4.40;2.83;;;21.20;70.50;21.90;100751.00;;;;6270736;22;20185;-51
2023/08/05 03:40:34;;;;;;;9.10;6.53;;;21.20;70.30;21.90;100737.00;;;;6271280;22;20164;-51
2023/08/05 03:43:00;;;;;;;6.80;6.10;;;21.20;70.10;21.90;100738.00;;;;6271568;22;20150;-51
2023/08/05 03:45:26;;;;;;;4.10;3.70;;;21.20;70.30;21.90;100732.00;;;;6269375;22;20152;-52
2023/08/05 03:47:53;;;;;;;4.07;3.77;;;21.10;70.50;21.80;100727.00;;;;6270764;22;20165;-52
2023/08/05 03:50:20;;;;;;;4.47;3.30;;;21.00;70.30;21.80;100718.00;;;;6269760;22;20172;-51
2023/08/05 03:52:49;;;;;;;3.30;3.00;;;21.10;70.80;21.80;100722.00;;;;6271475;22;20141;-51
2023/08/05 03:55:16;;;;;;;3.50;3.20;;;21.00;70.30;21.80;100720.00;;;;6274300;22;20145;-51
2023/08/05 03:57:41;;;;;;;3.83;3.10;;;21.10;70.30;21.80;100731.00;;;;6271434;22;20145;-52
2023/08/05 04:00:12;;;;;;;3.03;2.70;;;21.00;70.20;21.80;100725.00;;;;6271181;22;20175;-52
2023/08/05 04:02:38;;;;;;;2.97;2.73;;;21.00;69.90;21.70;100725.00;;;;6269493;22;20150;-52
2023/08/05 04:05:04;;;;;;;3.63;2.83;;;21.00;70.00;21.70;100722.00;;;;6218138;22;20157;-51
2023/08/05 04:07:31;;;;;;;3.63;2.73;;;21.00;70.40;21.70;100740.00;;;;6243458;22;20204;-51
2023/08/05 04:09:56;;;;;;;3.03;2.70;;;21.00;70.10;21.70;100721.00;;;;6277888;22;20164;-52
2023/08/05 04:12:22;;;;;;;3.20;2.40;;;21.00;70.40;21.70;100725.00;;;;6274185;22;20145;-51
2023/08/05 04:14:50;;;;;;;4.40;2.87;;;21.00;70.60;21.70;100725.00;;;;6270983;22;20228;-51
2023/08/05 04:17:16;;;;;;;3.30;3.00;;;21.00;69.60;21.70;100727.00;;;;6270273;22;20181;-51
2023/08/05 04:19:42;;;;;;;4.03;3.17;;;20.70;70.30;21.70;100731.00;;;;6270954;22;20491;-52
2023/08/05 04:22:08;;;;;;;3.10;2.80;;;20.80;70.60;21.70;100725.00;;;;6271218;22;20169;-52
2023/08/05 04:24:34;;;;;;;3.33;2.90;;;20.90;70.50;21.60;100730.00;;;;6270617;22;20144;-51
2023/08/05 04:27:00;;;;;;;4.00;2.80;;;20.90;70.70;21.60;100725.00;;;;6270044;22;20176;-51
2023/08/05 04:29:26;;;;;;;3.50;3.17;;;20.90;70.70;21.60;100719.00;;;;6268332;22;20518;-52
2023/08/05 04:31:52;;;;;;;3.20;2.90;;;21.00;70.40;21.60;100705.00;;;;6270737;22;20187;-52
2023/08/05 04:34:18;;;;;;;5.10;3.00;;;21.00;70.50;21.60;100703.00;;;;6243588;22;20149;-53
2023/08/05 04:36:49;;;;;;;6.33;2.93;;;20.90;70.40;21.50;100708.00;;;;6269574;22;20160;-52
2023/08/05 04:39:15;;;;;;;4.00;3.00;;;20.90;70.80;21.50;100710.00;;;;6271369;22;20134;-51
2023/08/05 04:41:41;;;;;;;4.83;2.80;;;20.90;70.50;21.50;100689.00;;;;6271403;22;20176;-52
2023/08/05 04:44:06;;;;;;;3.30;2.80;;;20.90;70.80;21.50;100698.00;;;;6270799;22;20146;-51
2023/08/05 04:46:32;;;;;;;6.10;3.27;;;20.90;70.70;21.50;100697.00;;;;6269544;22;20183;-51
2023/08/05 04:48:58;;;;;;;6.17;2.90;;;20.80;69.50;21.60;100691.00;;;;6270662;22;20156;-52
2023/08/05 04:51:24;;;;;;;4.70;2.90;;;20.50;70.70;21.60;100699.00;;;;6271010;22;20235;-51
2023/08/05 04:53:49;;;;;;;4.77;3.87;;;20.60;70.60;21.50;100696.00;;;;6271791;22;20152;-51
2023/08/05 04:56:16;;;;;;;4.50;2.90;;;20.70;70.90;21.50;100692.00;;;;6271801;22;20148;-51
2023/08/05 04:58:42;;;;;;;3.13;2.83;;;20.80;70.40;21.40;100687.00;;;;6272442;22;20628;-51
2023/08/05 05:01:07;;;;;;;3.07;2.77;;;20.80;70.60;21.40;100702.00;;;;6271527;22;20161;-52
2023/08/05 05:03:33;;;;;;;3.60;2.77;;;20.70;70.70;21.40;100694.00;;;;6272418;22;20141;-52
2023/08/05 05:06:00;;;;;;;4.37;2.97;;;20.70;70.70;21.40;100691.00;;;;6271329;22;20145;-51
2023/08/05 05:08:26;;;;;;;4.70;2.77;;;20.70;70.70;21.30;100694.00;;;;6272621;22;20158;-51
2023/08/05 05:10:51;;;;;;;5.47;3.70;;;20.60;70.80;21.30;100693.00;;;;6272871;22;20165;-52
2023/08/05 05:13:17;;;;;;;6.43;4.33;;;20.60;71.10;21.40;100692.00;;;;6272945;22;20157;-52
2023/08/05 05:15:43;;;;;;;5.20;4.70;;;20.60;71.50;21.40;100690.00;;;;6271581;22;20740;-52
2023/08/05 05:18:09;;;;;;;5.40;4.90;;;20.60;71.50;21.40;100683.00;;;;6272084;22;20702;-51
2023/08/05 05:20:34;;;;;;;4.57;4.17;;;20.60;71.90;21.40;100690.00;;;;6272524;22;20162;-51
2023/08/05 05:23:00;;;;;;;5.27;4.20;;;20.60;71.80;21.30;100686.00;;;;6272632;22;20551;-51
2023/08/05 05:25:26;;;;;;;4.97;4.57;;;20.50;71.90;21.30;100683.00;;;;6272019;22;20148;-51
2023/08/05 05:27:52;;;;;;;5.10;4.60;;;20.50;72.30;21.30;100689.00;;;;6270295;22;20173;-52
2023/08/05 05:30:17;;;;;;;5.07;4.67;;;20.50;72.20;21.20;100695.00;;;;6272492;22;20196;-52
2023/08/05 05:32:43;;;;;;;5.23;4.73;;;20.40;72.20;21.30;100705.00;;;;6272552;22;20145;-52
2023/08/05 05:35:09;;;;;;;6.03;5.23;;;20.50;72.50;21.30;100700.00;;;;6271478;22;20194;-52
2023/08/05 05:37:34;;;;;;;5.10;4.60;;;20.50;72.70;21.20;100696.00;;;;6272650;22;20632;-52
2023/08/05 05:40:00;;;;;;;5.50;5.00;;;20.40;72.60;21.30;100689.00;;;;6272467;22;20145;-52
2023/08/05 05:42:26;;;;;;;5.53;5.10;;;20.50;72.70;21.20;100693.00;;;;6270941;22;20145;-51
2023/08/05 05:44:54;;;;;;;6.20;5.60;;;20.50;72.70;21.30;100692.00;;;;6271872;22;20153;-52
2023/08/05 05:47:20;;;;;;;5.67;5.10;;;20.50;73.20;21.20;100691.00;;;;6271850;22;20621;-51
2023/08/05 05:49:46;;;;;;;6.00;5.50;;;20.50;72.70;21.20;100681.00;;;;6272256;22;20198;-51
2023/08/05 05:52:16;;;;;;;6.23;5.70;;;20.40;72.60;21.20;100688.00;;;;6278822;22;20528;-50
2023/08/05 05:54:45;;;;;;;6.60;6.00;;;20.50;73.00;21.20;100688.00;;;;6278535;22;20145;-53
2023/08/05 05:57:11;;;;;;;7.33;6.63;;;20.40;72.90;21.20;100693.00;;;;6272153;22;20153;-53
2023/08/05 05:59:38;;;;;;;6.60;6.00;;;20.50;73.80;21.20;100704.00;;;;6272776;22;20535;-52
2023/08/05 06:02:06;;;;;;;8.13;7.33;;;20.50;73.40;21.20;100705.00;;;;6270905;22;20169;-52
2023/08/05 06:04:32;;;;;;;7.60;6.27;;;20.40;73.60;21.20;100699.00;;;;6270641;22;20163;-52
2023/08/05 06:06:58;;;;;;;7.57;6.93;;;20.40;73.70;21.20;100704.00;;;;6279475;22;20169;-52
2023/08/05 06:09:25;;;;;;;8.97;6.90;;;20.50;73.70;21.30;100704.00;;;;6273793;22;20617;-52
2023/08/05 06:11:51;;;;;;;7.97;7.17;;;20.40;74.10;21.20;100689.00;;;;6270741;22;20252;-52
2023/08/05 06:14:18;;;;;;;8.00;7.20;;;20.40;74.10;21.20;100702.00;;;;6271947;22;20169;-51
2023/08/05 06:16:43;;;;;;;7.87;7.07;;;20.30;74.90;21.20;100703.00;;;;6270539;22;20624;-52
2023/08/05 06:19:09;;;;;;;6.47;5.87;;;20.30;74.80;21.20;100703.00;;;;6271625;22;20145;-51
2023/08/05 06:21:35;;;;;;;6.60;6.00;;;20.20;74.60;21.20;100707.00;;;;6272017;22;20173;-51
2023/08/05 06:24:00;;;;;;;5.97;5.37;;;20.30;74.50;21.10;100705.00;;;;6272368;22;20152;-51
2023/08/05 06:26:26;;;;;;;6.63;6.03;;;20.30;74.30;21.10;100695.00;;;;6270821;22;20173;-52
2023/08/05 06:28:52;;;;;;;6.40;5.80;;;20.30;74.50;21.10;100707.00;;;;6272268;22;20624;-51
2023/08/05 06:31:18;;;;;;;6.47;5.87;;;20.30;73.90;21.10;100711.00;;;;6272520;22;20643;-51
2023/08/05 06:33:43;;;;;;;7.77;6.40;;;20.30;74.70;21.10;100703.00;;;;6271906;22;20148;-51
2023/08/05 06:36:09;;;;;;;10.57;9.13;;;20.40;74.80;21.10;100701.00;;;;6269097;22;20217;-52
2023/08/05 06:38:35;;;;;;;9.83;8.93;;;20.30;75.10;21.10;100703.00;;;;6272196;22;20195;-52
2023/08/05 06:41:01;;;;;;;9.60;8.60;;;20.10;76.40;21.10;100708.00;;;;6270309;22;20178;-52
2023/08/05 06:43:27;;;;;;;12.00;10.80;;;20.20;75.60;21.10;100720.00;;;;6272136;22;20158;-52
2023/08/05 06:45:53;;;;;;;12.60;10.17;;;20.10;76.50;21.10;100715.00;;;;6271190;22;20197;-52
2023/08/05 06:48:18;;;;;;;11.10;10.07;;;20.10;76.10;21.00;100718.00;;;;6270625;22;20174;-53
2023/08/05 06:50:44;;;;;;;10.27;9.27;;;20.10;76.50;21.00;100695.00;;;;6269930;22;20203;-52
2023/08/05 06:53:10;;;;;;;8.90;8.00;;;20.00;76.30;21.00;100711.00;;;;6270427;22;20145;-52
2023/08/05 06:55:36;;;;;;;8.97;8.10;;;20.10;76.50;21.00;100702.00;;;;6270602;22;20214;-52
2023/08/05 06:58:01;;;;;;;7.63;6.93;;;19.70;77.20;20.90;100706.00;;;;6264886;22;20613;-52
2023/08/05 07:00:27;;;;;;;8.07;7.37;;;19.70;77.00;20.90;100703.00;;;;6271597;22;20196;-52
2023/08/05 07:02:53;;;;;;;9.33;7.50;;;19.90;77.00;20.90;100695.00;;;;6272016;22;20146;-51
2023/08/05 07:05:19;;;;;;;9.20;8.40;;;19.90;76.90;20.90;100700.00;;;;6269255;22;20203;-51
2023/08/05 07:07:44;;;;;;;8.70;7.80;;;19.90;76.50;20.90;100666.00;;;;6271305;22;20169;-52
2023/08/05 07:10:12;;;;;;;7.13;6.07;;;20.10;76.50;20.90;100698.00;;;;6265424;22;20222;-51
2023/08/05 07:12:38;;;;;;;6.50;5.90;;;20.10;75.90;20.90;100679.00;;;;6262398;22;20612;-51
2023/08/05 07:15:04;;;;;;;7.53;5.60;;;20.10;75.70;20.90;100664.00;;;;6264237;22;20179;-51
2023/08/05 07:17:30;;;;;;;5.60;5.10;;;20.10;75.60;21.00;100668.00;;;;6270377;22;20218;-51
2023/08/05 07:19:56;;;;;;;6.13;5.20;;;20.20;75.70;21.00;100678.00;;;;6265879;22;20149;-51
2023/08/05 07:22:21;;;;;;;5.53;5.03;;;20.20;75.50;21.00;100674.00;;;;6271004;22;20656;-51
2023/08/05 07:24:47;;;;;;;5.70;5.20;;;20.20;75.50;21.00;100665.00;;;;6270804;22;20176;-51
2023/08/05 07:27:13;;;;;;;5.60;5.10;;;20.20;75.40;21.00;100659.00;;;;6268844;22;20502;-52
2023/08/05 07:29:43;;;;;;;5.40;4.90;;;20.20;75.30;21.00;100656.00;;;;6269458;22;20145;-51
2023/08/05 07:32:08;;;;;;;4.93;4.50;;;20.30;75.40;21.00;100646.00;;;;6271489;22;20290;-52
2023/08/05 07:34:34;;;;;;;5.33;4.67;;;20.30;75.50;21.00;100646.00;;;;6271696;22;20148;-52
2023/08/05 07:37:00;;;;;;;5.10;4.70;;;20.30;75.40;21.10;100640.00;;;;6271353;22;20152;-51
2023/08/05 07:39:33;;;;;;;5.03;4.63;;;20.20;75.30;21.10;100653.00;;;;6271356;22;20172;-51
2023/08/05 07:42:05;;;;;;;6.07;4.40;;;20.30;75.50;21.10;100644.00;;;;6271603;22;20242;-52
2023/08/05 07:44:31;;;;;;;6.07;4.67;;;20.30;75.50;21.10;100647.00;;;;6270957;22;20539;-52
2023/08/05 07:47:00;;;;;;;5.93;4.53;;;20.30;75.40;21.10;100635.00;;;;6270756;22;20260;-51
2023/08/05 07:49:26;;;;;;;4.90;4.37;;;20.30;75.40;21.10;100620.00;;;;6276527;22;20141;-52
2023/08/05 07:51:53;;;;;;;5.03;4.53;;;20.30;75.40;21.10;100616.00;;;;6272043;22;20168;-52
2023/08/05 07:54:20;;;;;;;4.83;4.40;;;20.30;75.40;21.10;100627.00;;;;6269446;22;20604;-52
2023/08/05 07:56:46;;;;;;;5.03;4.40;;;20.30;75.50;21.10;100626.00;;;;6271202;22;20144;-52
2023/08/05 07:59:12;;;;;;;4.37;4.07;;;20.30;75.40;21.10;100614.00;;;;6271921;22;20153;-51
2023/08/05 08:01:42;;;;;;;5.07;4.57;;;20.30;75.40;21.10;100612.00;;;;6271699;22;20200;-51
2023/08/05 08:04:09;;;;;;;5.43;4.47;;;20.30;75.40;21.10;100603.00;;;;6281490;22;20177;-52
2023/08/05 08:06:35;;;;;;;4.47;4.10;;;20.30;75.40;21.10;100607.00;;;;6263244;22;20172;-51
2023/08/05 08:09:01;;;;;;;4.63;4.23;;;20.30;75.20;21.20;100601.00;;;;6268564;22;20182;-51
2023/08/05 08:11:27;;;;;;;4.60;4.17;;;20.30;75.20;21.20;100577.00;;;;6270524;22;20172;-52
2023/08/05 08:13:52;;;;;;;4.73;4.33;;;20.30;75.30;21.20;100593.00;;;;6243728;22;20202;-52
2023/08/05 08:16:18;;;;;;;4.80;4.30;;;20.30;75.20;21.20;100594.00;;;;6269005;22;20230;-52
2023/08/05 08:18:44;;;;;;;4.60;4.20;;;20.30;75.20;21.20;100586.00;;;;6271270;22;20134;-52
2023/08/05 08:21:10;;;;;;;4.40;4.10;;;20.40;75.40;21.20;100577.00;;;;6268892;22;20227;-52
2023/08/05 08:23:36;;;;;;;4.67;4.27;;;20.30;75.20;21.20;100570.00;;;;6271369;22;20153;-52
2023/08/05 08:26:02;;;;;;;4.93;4.53;;;20.40;75.30;21.20;100575.00;;;;6270529;22;20144;-51
2023/08/05 08:28:27;;;;;;;4.43;4.03;;;20.40;75.40;21.20;100574.00;;;;6269743;22;20250;-51
2023/08/05 08:30:55;;;;;;;4.30;4.00;;;20.40;75.40;21.20;100552.00;;;;6273170;22;20169;-51
2023/08/05 08:33:21;;;;;;;4.70;4.30;;;20.40;75.40;21.30;100578.00;;;;6272175;22;20253;-52
2023/08/05 08:35:48;;;;;;;4.87;4.47;;;20.40;75.40;21.30;100562.00;;;;6272787;22;20228;-51
2023/08/05 08:38:18;;;;;;;5.03;4.57;;;20.40;75.40;21.30;100559.00;;;;6272265;22;20617;-52
2023/08/05 08:40:47;;;;;;;4.70;4.30;;;20.40;75.40;21.30;100549.00;;;;6272594;22;20509;-51
2023/08/05 08:43:18;;;;;;;4.53;4.13;;;20.40;75.50;21.30;100549.00;;;;6270965;22;20148;-51
2023/08/05 08:45:43;;;;;;;4.53;4.13;;;20.40;75.60;21.30;100546.00;;;;6271654;22;20156;-51
2023/08/05 08:48:09;;;;;;;4.67;4.27;;;20.40;76.40;21.30;100544.00;;;;6245563;22;20241;-51
2023/08/05 08:50:36;;;;;;;4.50;4.20;;;20.40;75.80;21.30;100538.00;;;;6269349;22;20165;-52
2023/08/05 08:53:02;;;;;;;4.50;4.10;;;20.40;76.30;21.30;100542.00;;;;6221509;22;20588;-52
2023/08/05 08:55:27;;;;;;;4.60;4.20;;;20.50;76.40;21.30;100531.00;;;;6272664;22;20172;-52
2023/08/05 08:57:53;;;;;;;4.43;4.13;;;20.40;76.30;21.30;100537.00;;;;6220604;22;20153;-51
2023/08/05 09:00:19;;;;;;;4.17;3.87;;;20.40;76.40;21.30;100534.00;;;;6269465;22;20622;-52
2023/08/05 09:02:44;;;;;;;4.33;4.00;;;20.40;76.50;21.30;100531.00;;;;6272763;22;20148;-51
2023/08/05 09:05:10;;;;;;;3.93;3.63;;;20.40;76.70;21.30;100530.00;;;;6271793;22;20149;-52
2023/08/05 09:07:36;;;;;;;4.03;3.73;;;20.50;76.90;21.30;100527.00;;;;6270467;22;20176;-51
2023/08/05 09:10:05;;;;;;;4.97;4.03;;;20.50;76.70;21.30;100530.00;;;;6220211;22;20153;-52
2023/08/05 09:12:33;;;;;;;5.90;3.77;;;20.60;76.80;21.30;100516.00;;;;6272293;22;20156;-51
2023/08/05 09:14:59;;;;;;;4.30;4.00;;;20.50;76.60;21.30;100512.00;;;;6272094;22;20149;-51
2023/08/05 09:17:26;;;;;;;4.10;3.80;;;20.60;76.80;21.30;100517.00;;;;6270514;22;20609;-51
2023/08/05 09:19:52;;;;;;;4.40;4.10;;;20.50;76.70;21.30;100500.00;;;;6272193;22;20219;-52
2023/08/05 09:22:18;;;;;;;4.50;4.10;;;20.60;76.80;21.30;100481.00;;;;6272826;22;20601;-51
2023/08/05 09:24:43;;;;;;;4.17;3.87;;;20.60;76.80;21.30;100502.00;;;;6270636;22;20145;-50
2023/08/05 09:27:09;;;;;;;4.10;3.80;;;20.60;76.90;21.30;100499.00;;;;6272221;22;20172;-50
2023/08/05 09:29:36;;;;;;;4.63;3.60;;;20.60;76.80;21.30;100497.00;;;;6272317;22;20151;-50
2023/08/05 09:32:03;;;;;;;4.10;3.80;;;20.60;76.80;21.30;100500.00;;;;6270367;22;20621;-51
2023/08/05 09:34:37;;;;;;;4.00;3.70;;;20.70;76.90;21.30;100499.00;;;;6271316;22;20145;-51
2023/08/05 09:37:03;;;;;;;4.13;3.83;;;20.70;76.90;21.30;100508.00;;;;6272360;22;20585;-51
2023/08/05 09:39:49;;;;;;;4.40;4.10;;;20.70;76.80;21.30;100502.00;;;;6272213;22;20186;-50
2023/08/05 09:42:20;;;;;;;4.53;4.13;;;20.70;77.00;21.30;100491.00;;;;6272927;22;20141;-52
2023/08/05 09:44:52;;;;;;;4.13;3.80;;;20.80;77.00;21.30;100496.00;;;;6272521;22;20509;-51
2023/08/05 09:47:21;;;;;;;4.00;3.70;;;20.80;77.00;21.30;100484.00;;;;6272799;22;20544;-50
2023/08/05 09:49:51;;;;;;;4.03;3.60;;;20.80;77.00;21.30;100484.00;;;;6251935;22;20156;-51
2023/08/05 09:52:18;;;;;;;4.10;3.70;;;20.80;77.00;21.40;100480.00;;;;6274047;22;20161;-52
2023/08/05 09:54:52;;;;;;;3.90;3.60;;;20.80;77.10;21.40;100476.00;;;;6272050;22;20149;-51
2023/08/05 09:57:19;;;;;;;3.90;3.60;;;20.80;77.20;21.50;100473.00;;;;6223492;22;20145;-51
2023/08/05 09:59:46;;;;;;;3.70;3.40;;;20.80;77.30;21.50;100467.00;;;;6267501;22;20168;-52
2023/08/05 10:02:12;;;;;;;3.90;3.60;;;20.80;77.30;21.60;100461.00;;;;6246442;22;20149;-51
2023/08/05 10:04:40;;;;;;;3.83;3.53;;;20.80;77.30;21.60;100460.00;;;;6276739;22;20153;-51
2023/08/05 10:07:07;;;;;;;5.13;3.80;;;20.80;77.30;21.60;100454.00;;;;6271154;22;20238;-51
2023/08/05 10:09:33;;;;;;;3.97;3.67;;;20.80;77.30;21.70;100460.00;;;;6270598;22;20223;-51
2023/08/05 10:12:00;;;;;;;4.20;3.80;;;20.80;77.30;21.70;100458.00;;;;6272034;22;20211;-51
2023/08/05 10:14:27;;;;;;;4.10;3.50;;;20.80;77.30;21.70;100457.00;;;;6269880;22;20149;-51
2023/08/05 10:16:52;;;;;;;4.07;3.67;;;20.90;77.40;21.70;100454.00;;;;6219186;22;20219;-51
2023/08/05 10:19:28;;;;;;;3.90;3.60;;;20.90;77.40;21.70;100446.00;;;;6244866;22;20524;-51
2023/08/05 10:22:11;;;;;;;5.17;4.00;;;20.90;77.40;21.80;100418.00;;;;6271106;22;20195;-50
2023/08/05 10:24:56;;;;;;;4.10;3.70;;;20.90;77.40;21.80;100430.00;;;;6270956;22;20134;-50
2023/08/05 10:27:42;;;;;;;4.20;3.83;;;20.90;77.40;21.80;100426.00;;;;6272176;22;20173;-50
2023/08/05 10:30:12;;;;;;;5.53;3.60;;;20.90;77.40;21.80;100423.00;;;;6271577;22;20195;-51
2023/08/05 10:32:55;;;;;;;3.80;3.50;;;20.90;77.40;21.80;100415.00;;;;6271253;22;20148;-51
2023/08/05 10:35:32;;;;;;;4.07;3.67;;;21.00;77.50;21.90;100413.00;;;;6271658;22;20145;-51
2023/08/05 10:38:15;;;;;;;3.80;3.50;;;21.00;77.60;21.90;100407.00;;;;6270008;22;20208;-49
2023/08/05 10:40:47;;;;;;;4.37;3.40;;;21.00;77.50;21.90;100413.00;;;;6272097;22;20226;-52
2023/08/05 10:43:30;;;;;;;3.60;3.30;;;21.00;77.70;21.90;100397.00;;;;6271969;22;20149;-51
2023/08/05 10:46:14;;;;;;;3.50;3.30;;;21.00;77.70;21.90;100317.00;;;;6271349;22;20133;-51